Time;durP1;ratioP1;P1;durP2;ratioP2;P2;SDS_P1;SDS_P2;PMS_P1;PMS_P2;Temp;Humidity;BMP_temperature;BMP_pressure;BME280_temperature;BME280_humidity;BME280_pressure;Samples;Min_cycle;Max_cycle;Signal;HPM_P1;HPM_P2
2022/10/16 00:02:31;;;;;;;7.43;2.75;;;13.40;89.50;;;;;;9180308;19;20102;-65
2022/10/16 00:05:40;;;;;;;3.90;2.58;;;13.40;89.50;;;;;;9178640;19;20463;-64
2022/10/16 00:08:44;;;;;;;12.23;2.55;;;13.40;89.50;;;;;;9181108;19;20025;-64
2022/10/16 00:11:48;;;;;;;7.93;2.45;;;13.40;89.50;;;;;;9180714;19;20021;-64
2022/10/16 00:14:52;;;;;;;7.45;2.35;;;13.40;89.50;;;;;;9180371;19;20014;-63
2022/10/16 00:17:56;;;;;;;6.90;2.70;;;13.40;89.50;;;;;;9179158;19;20014;-64
2022/10/16 00:21:07;;;;;;;4.45;2.25;;;13.30;89.40;;;;;;9175618;19;20081;-65
2022/10/16 00:24:29;;;;;;;6.20;2.50;;;13.40;89.50;;;;;;9180086;19;20023;-63
2022/10/16 00:27:33;;;;;;;4.38;2.33;;;13.30;89.50;;;;;;9180617;19;20049;-66
2022/10/16 00:30:39;;;;;;;3.75;2.88;;;13.30;89.50;;;;;;9180826;19;20518;-63
2022/10/16 00:33:43;;;;;;;6.35;2.30;;;13.30;89.50;;;;;;9181347;19;20026;-63
2022/10/16 00:36:49;;;;;;;;;;;13.30;89.50;;;;;;9182479;19;20010;-62
2022/10/16 00:39:52;;;;;;;4.55;2.05;;;13.30;89.50;;;;;;9180922;19;19936;-62
2022/10/16 00:42:56;;;;;;;7.78;2.50;;;13.30;89.40;;;;;;9181305;19;20456;-64
2022/10/16 00:46:00;;;;;;;6.80;2.85;;;13.20;89.40;;;;;;9179031;19;20146;-64
2022/10/16 00:49:07;;;;;;;;;;;13.20;89.40;;;;;;9181806;19;20415;-64
2022/10/16 00:52:13;;;;;;;13.48;2.20;;;13.20;89.40;;;;;;9181115;19;19927;-64
2022/10/16 00:55:18;;;;;;;5.03;2.17;;;13.20;90.00;;;;;;9181041;19;20022;-63
2022/10/16 00:58:22;;;;;;;5.35;2.47;;;13.10;89.40;;;;;;9179772;19;20482;-63
2022/10/16 01:01:26;;;;;;;4.32;2.13;;;13.10;89.40;;;;;;9179791;19;20086;-61
2022/10/16 01:04:34;;;;;;;8.70;2.33;;;13.10;89.50;;;;;;9178321;19;20023;-61
2022/10/16 01:07:47;;;;;;;8.38;2.20;;;13.20;89.50;;;;;;9178816;19;20074;-64
2022/10/16 01:10:59;;;;;;;4.73;2.33;;;13.10;89.50;;;;;;9180405;19;20040;-63
2022/10/16 01:14:08;;;;;;;7.15;2.20;;;13.10;89.50;;;;;;9180376;19;20022;-62
2022/10/16 01:17:17;;;;;;;3.38;1.90;;;13.10;89.50;;;;;;9179934;19;20022;-62
2022/10/16 01:20:30;;;;;;;6.97;2.40;;;13.10;89.60;;;;;;9175689;19;20501;-63
2022/10/16 01:23:53;;;;;;;6.90;2.05;;;13.10;89.60;;;;;;9179594;19;20097;-63
2022/10/16 01:27:17;;;;;;;4.78;1.98;;;13.10;89.60;;;;;;9175851;19;20367;-62
2022/10/16 01:30:25;;;;;;;4.78;2.03;;;13.10;90.10;;;;;;9179124;19;20039;-65
2022/10/16 01:33:34;;;;;;;9.05;2.45;;;13.10;89.60;;;;;;9179665;19;20026;-64
2022/10/16 01:36:41;;;;;;;6.80;2.58;;;13.20;89.60;;;;;;9180522;19;20078;-64
2022/10/16 01:39:50;;;;;;;8.00;2.10;;;13.20;89.60;;;;;;9178620;19;20351;-64
2022/10/16 01:43:01;;;;;;;5.35;2.30;;;13.20;89.70;;;;;;9177889;19;20028;-62
2022/10/16 01:46:05;;;;;;;12.57;3.50;;;13.20;89.60;;;;;;9176395;19;20018;-64
2022/10/16 01:49:12;;;;;;;7.63;2.17;;;13.20;89.60;;;;;;9179415;19;20025;-63
2022/10/16 01:52:21;;;;;;;6.80;2.45;;;13.20;89.60;;;;;;9178316;19;20022;-62
2022/10/16 01:55:30;;;;;;;7.82;3.25;;;13.30;89.70;;;;;;9174922;19;20022;-63
2022/10/16 01:58:42;;;;;;;4.38;2.63;;;13.30;89.60;;;;;;9179605;19;20018;-63
2022/10/16 02:01:51;;;;;;;4.97;2.38;;;13.30;89.60;;;;;;9178240;19;20014;-62
2022/10/16 02:04:59;;;;;;;5.40;2.50;;;13.30;89.60;;;;;;9176840;19;20090;-64
2022/10/16 02:08:04;;;;;;;11.15;3.28;;;13.30;89.60;;;;;;9177736;19;20023;-62
2022/10/16 02:11:09;;;;;;;3.03;2.15;;;13.30;89.50;;;;;;9178604;19;20788;-63
2022/10/16 02:14:14;;;;;;;3.10;2.47;;;13.30;90.10;;;;;;9177198;19;20018;-65
2022/10/16 02:17:19;;;;;;;8.38;2.70;;;13.30;89.50;;;;;;9175328;19;20007;-62
2022/10/16 02:20:29;;;;;;;6.15;2.80;;;13.30;89.60;;;;;;9173452;19;20928;-63
2022/10/16 02:23:42;;;;;;;5.57;3.00;;;13.30;89.60;;;;;;9175885;19;20359;-64
2022/10/16 02:26:50;;;;;;;5.82;2.72;;;13.30;89.60;;;;;;9173945;19;20048;-64
2022/10/16 02:30:01;;;;;;;10.85;3.67;;;13.30;89.60;;;;;;9177186;19;20083;-63
2022/10/16 02:33:09;;;;;;;10.02;2.67;;;13.30;89.60;;;;;;9174602;19;20010;-63
2022/10/16 02:36:13;;;;;;;9.90;3.30;;;13.30;89.70;;;;;;9177239;19;20014;-63
2022/10/16 02:39:18;;;;;;;8.57;3.13;;;13.30;89.60;;;;;;9170704;19;20086;-63
2022/10/16 02:42:21;;;;;;;9.05;2.83;;;13.30;89.70;;;;;;9176558;19;20028;-62
2022/10/16 02:45:29;;;;;;;7.80;2.80;;;13.30;89.70;;;;;;9173040;19;20015;-65
2022/10/16 02:48:32;;;;;;;4.95;2.85;;;13.30;89.80;;;;;;9176788;19;20015;-64
2022/10/16 02:51:36;;;;;;;5.70;2.80;;;13.30;89.80;;;;;;9174718;19;20035;-65
2022/10/16 02:54:40;;;;;;;12.13;3.13;;;13.30;89.70;;;;;;9173613;19;20021;-65
2022/10/16 02:57:44;;;;;;;15.35;3.25;;;13.30;89.70;;;;;;9175550;19;20015;-63
2022/10/16 03:00:49;;;;;;;7.07;3.67;;;13.30;89.70;;;;;;9174294;19;20082;-63
2022/10/16 03:03:53;;;;;;;5.18;3.20;;;13.30;90.10;;;;;;9175428;19;20022;-64
2022/10/16 03:06:57;;;;;;;9.63;3.45;;;13.30;89.80;;;;;;9171252;19;20086;-63
2022/10/16 03:10:01;;;;;;;;;;;13.30;89.80;;;;;;9175954;19;20018;-62
2022/10/16 03:13:05;;;;;;;10.07;3.42;;;13.30;89.80;;;;;;9173543;19;19923;-63
2022/10/16 03:16:11;;;;;;;6.72;3.22;;;13.30;89.70;;;;;;9174940;19;20018;-66
2022/10/16 03:19:17;;;;;;;6.07;2.95;;;13.30;89.80;;;;;;9173263;19;20038;-63
2022/10/16 03:22:21;;;;;;;7.00;3.25;;;13.40;89.90;;;;;;9168989;19;20024;-63
2022/10/16 03:25:25;;;;;;;8.13;3.25;;;13.40;90.00;;;;;;9171789;19;20018;-62
2022/10/16 03:28:28;;;;;;;;;;;13.40;90.00;;;;;;9177536;19;20527;-62
2022/10/16 03:31:34;;;;;;;6.32;2.75;;;13.40;90.00;;;;;;9183653;19;19914;-63
2022/10/16 03:34:38;;;;;;;6.95;3.03;;;13.40;89.80;;;;;;9183721;19;20113;-62
2022/10/16 03:37:41;;;;;;;5.15;3.08;;;13.40;89.90;;;;;;9182809;19;20018;-62
2022/10/16 03:40:45;;;;;;;6.72;3.13;;;13.40;89.90;;;;;;9183384;19;20022;-62
2022/10/16 03:43:49;;;;;;;4.72;3.03;;;13.40;89.90;;;;;;9182610;19;20022;-63
2022/10/16 03:46:54;;;;;;;;;;;13.50;90.00;;;;;;9180746;19;20102;-61
2022/10/16 03:49:58;;;;;;;5.57;2.78;;;13.50;90.00;;;;;;9182686;19;19930;-64
2022/10/16 03:53:02;;;;;;;5.72;2.85;;;13.50;89.90;;;;;;9182882;19;20026;-64
2022/10/16 03:56:07;;;;;;;4.68;3.33;;;13.50;89.90;;;;;;9181943;19;20491;-61
2022/10/16 03:59:10;;;;;;;9.25;2.78;;;13.50;89.90;;;;;;9181726;19;20058;-63
2022/10/16 04:02:16;;;;;;;8.35;2.67;;;13.50;89.90;;;;;;9181462;19;20056;-64
2022/10/16 04:05:20;;;;;;;6.95;2.80;;;13.50;89.90;;;;;;9180380;19;20010;-60
2022/10/16 04:08:23;;;;;;;6.93;2.97;;;13.50;90.00;;;;;;9180500;19;20078;-65
2022/10/16 04:11:27;;;;;;;7.25;2.72;;;13.60;90.00;;;;;;9179286;19;20056;-62
2022/10/16 04:14:31;;;;;;;6.85;2.70;;;13.60;90.00;;;;;;9182771;19;20010;-61
2022/10/16 04:17:36;;;;;;;10.25;2.80;;;13.60;90.00;;;;;;9180174;19;20022;-63
2022/10/16 04:20:40;;;;;;;6.95;2.75;;;13.60;90.00;;;;;;9176752;19;20085;-64
2022/10/16 04:23:44;;;;;;;8.20;2.63;;;13.60;90.00;;;;;;9181386;19;20014;-63
2022/10/16 04:26:48;;;;;;;6.30;3.08;;;13.60;90.00;;;;;;9179058;19;20016;-64
2022/10/16 04:29:52;;;;;;;6.07;2.72;;;13.60;90.00;;;;;;9181226;19;20364;-63
2022/10/16 04:32:57;;;;;;;3.88;2.38;;;13.60;90.00;;;;;;9181137;19;20048;-63
2022/10/16 04:36:02;;;;;;;4.70;2.60;;;13.60;90.00;;;;;;9179757;19;20018;-63
2022/10/16 04:39:06;;;;;;;23.83;2.78;;;13.70;90.00;;;;;;9180441;19;20015;-63
2022/10/16 04:42:09;;;;;;;4.47;2.75;;;13.70;90.00;;;;;;9179317;19;20492;-63
2022/10/16 04:45:13;;;;;;;4.18;2.33;;;13.70;90.00;;;;;;9176846;19;20029;-66
2022/10/16 04:48:22;;;;;;;3.38;2.10;;;13.70;90.00;;;;;;9177283;19;20011;-62
2022/10/16 04:51:26;;;;;;;3.42;2.42;;;13.70;89.90;;;;;;9178775;19;20110;-64
2022/10/16 04:54:30;;;;;;;4.65;2.10;;;13.70;89.90;;;;;;9176667;19;20014;-63
2022/10/16 04:57:34;;;;;;;5.03;2.53;;;13.70;90.00;;;;;;9174999;19;20031;-64
2022/10/16 05:00:38;;;;;;;8.70;2.28;;;13.70;90.00;;;;;;9175010;19;20089;-65
2022/10/16 05:03:43;;;;;;;;;;;13.70;89.90;;;;;;9176860;19;20603;-63
2022/10/16 05:06:47;;;;;;;3.40;2.13;;;13.70;90.00;;;;;;9172346;19;19918;-62
2022/10/16 05:09:51;;;;;;;13.23;2.63;;;13.70;89.80;;;;;;9173999;19;20152;-61
2022/10/16 05:12:54;;;;;;;5.45;2.60;;;13.70;89.90;;;;;;9180317;19;20019;-65
2022/10/16 05:15:58;;;;;;;4.97;2.63;;;13.70;89.90;;;;;;9177698;19;20110;-65
2022/10/16 05:19:03;;;;;;;4.35;2.30;;;13.70;89.90;;;;;;9176510;19;20097;-62
2022/10/16 05:22:27;;;;;;;3.65;2.38;;;13.70;89.90;;;;;;9175201;19;20587;-64
2022/10/16 05:25:31;;;;;;;5.43;2.47;;;13.70;89.90;;;;;;9178993;19;20022;-63
2022/10/16 05:28:34;;;;;;;7.80;2.67;;;13.70;89.90;;;;;;9177345;19;20025;-63
2022/10/16 05:31:38;;;;;;;5.15;3.13;;;13.70;89.90;;;;;;9168757;19;20101;-66
2022/10/16 05:34:44;;;;;;;4.03;2.33;;;13.70;90.20;;;;;;9170423;19;20783;-62
2022/10/16 05:37:47;;;;;;;6.70;2.65;;;13.70;89.90;;;;;;9168603;19;20020;-64
2022/10/16 05:40:54;;;;;;;6.95;2.85;;;13.70;89.90;;;;;;9159939;19;20024;-66
2022/10/16 05:43:58;;;;;;;7.25;2.67;;;13.70;89.90;;;;;;9166611;19;20018;-65
2022/10/16 05:47:02;;;;;;;5.32;2.20;;;13.70;89.80;;;;;;9161576;19;20086;-64
2022/10/16 05:50:08;;;;;;;7.82;2.47;;;13.60;89.80;;;;;;9159166;19;20010;-65
2022/10/16 05:53:12;;;;;;;4.65;2.58;;;13.60;89.90;;;;;;9161624;19;20413;-62
2022/10/16 05:56:16;;;;;;;4.78;2.50;;;13.60;89.80;;;;;;9160548;19;20045;-64
2022/10/16 05:59:19;;;;;;;5.78;2.35;;;13.60;89.80;;;;;;9160642;19;20061;-65
2022/10/16 06:02:23;;;;;;;4.45;1.95;;;13.60;89.80;;;;;;9164456;19;20435;-65
2022/10/16 06:05:29;;;;;;;2.53;2.20;;;13.60;89.80;;;;;;9176303;19;20017;-65
2022/10/16 06:08:33;;;;;;;6.28;1.92;;;13.60;89.80;;;;;;9176308;19;20086;-64
2022/10/16 06:11:38;;;;;;;4.78;2.10;;;13.60;89.90;;;;;;9177876;19;20014;-63
2022/10/16 06:14:42;;;;;;;3.35;1.90;;;13.60;89.80;;;;;;9177399;19;20019;-61
2022/10/16 06:17:45;;;;;;;7.97;2.83;;;13.60;89.80;;;;;;9177984;19;20021;-62
2022/10/16 06:20:51;;;;;;;;;;;13.60;89.90;;;;;;9173274;19;20002;-62
2022/10/16 06:23:56;;;;;;;2.13;1.75;;;13.60;89.80;;;;;;9175294;19;19974;-63
2022/10/16 06:26:59;;;;;;;5.82;1.63;;;13.50;89.70;;;;;;9174682;19;20036;-63
2022/10/16 06:30:03;;;;;;;3.10;2.17;;;13.50;89.70;;;;;;9176536;19;20033;-63
2022/10/16 06:33:07;;;;;;;;;;;13.50;89.80;;;;;;9178693;19;20396;-63
2022/10/16 06:36:16;;;;;;;2.58;1.80;;;13.50;89.80;;;;;;9176532;19;19935;-62
2022/10/16 06:39:20;;;;;;;5.00;2.75;;;13.50;89.80;;;;;;9176735;19;20364;-64
2022/10/16 06:42:23;;;;;;;4.13;2.15;;;13.50;89.80;;;;;;9177508;19;20475;-63
2022/10/16 06:45:27;;;;;;;5.15;2.30;;;13.50;89.80;;;;;;9174566;19;20082;-62
2022/10/16 06:48:33;;;;;;;10.55;2.67;;;13.50;89.80;;;;;;9177390;19;20562;-63
2022/10/16 06:51:40;;;;;;;4.40;2.25;;;13.50;89.80;;;;;;9177306;19;20364;-63
2022/10/16 06:54:46;;;;;;;3.00;2.30;;;13.50;89.80;;;;;;9176185;19;20022;-63
2022/10/16 06:57:50;;;;;;;7.05;2.10;;;13.50;89.90;;;;;;9176753;19;20011;-65
2022/10/16 07:00:57;;;;;;;;;;;13.50;89.90;;;;;;9176580;19;20418;-62
2022/10/16 07:04:01;;;;;;;3.70;2.60;;;13.50;90.20;;;;;;9179437;19;19927;-65
2022/10/16 07:07:07;;;;;;;3.47;2.25;;;13.50;89.80;;;;;;9182875;19;20188;-64
2022/10/16 07:10:12;;;;;;;2.80;2.10;;;13.50;89.90;;;;;;9183813;19;20483;-64
2022/10/16 07:13:16;;;;;;;6.95;2.42;;;13.50;90.00;;;;;;9183456;19;20025;-64
2022/10/16 07:16:22;;;;;;;9.68;2.42;;;13.50;90.00;;;;;;9184196;19;20901;-63
2022/10/16 07:19:25;;;;;;;6.57;2.08;;;13.60;90.30;;;;;;9182306;19;20017;-64
2022/10/16 07:22:35;;;;;;;6.03;2.33;;;13.60;90.10;;;;;;9179436;19;20034;-64
2022/10/16 07:25:39;;;;;;;4.90;2.20;;;13.60;90.10;;;;;;9183855;19;20018;-64
2022/10/16 07:28:44;;;;;;;6.72;2.30;;;13.60;90.10;;;;;;9183811;19;20019;-64
2022/10/16 07:31:49;;;;;;;6.53;2.50;;;13.70;90.10;;;;;;9181336;19;20007;-63
2022/10/16 07:34:53;;;;;;;5.35;2.45;;;13.70;90.10;;;;;;9183483;19;20010;-62
2022/10/16 07:37:59;;;;;;;;;;;13.70;90.10;;;;;;9184205;19;20022;-63
2022/10/16 07:41:04;;;;;;;3.80;1.80;;;13.80;90.10;;;;;;9182491;19;20355;-63
2022/10/16 07:44:08;;;;;;;6.30;2.70;;;13.80;90.00;;;;;;9183694;19;20013;-63
2022/10/16 07:47:12;;;;;;;5.53;2.38;;;13.80;90.00;;;;;;9181120;19;20034;-64
2022/10/16 07:50:15;;;;;;;5.05;2.60;;;13.90;90.10;;;;;;9183495;19;20362;-64
2022/10/16 07:53:21;;;;;;;8.55;2.20;;;13.90;90.10;;;;;;9181857;19;20024;-63
2022/10/16 07:56:32;;;;;;;7.15;2.20;;;13.90;90.10;;;;;;9182834;19;20014;-64
2022/10/16 07:59:35;;;;;;;7.50;2.25;;;14.00;90.10;;;;;;9183400;19;20574;-63
2022/10/16 08:02:39;;;;;;;3.55;2.13;;;14.00;90.10;;;;;;9182975;19;20016;-67
2022/10/16 08:05:43;;;;;;;5.47;2.03;;;14.00;90.10;;;;;;9181116;19;20094;-62
2022/10/16 08:08:48;;;;;;;6.50;2.13;;;14.00;90.10;;;;;;9182979;19;20058;-62
2022/10/16 08:11:52;;;;;;;3.80;1.90;;;14.10;90.10;;;;;;9182230;19;20597;-64
2022/10/16 08:14:56;;;;;;;5.35;2.35;;;14.10;90.10;;;;;;9176949;19;20029;-64
2022/10/16 08:18:01;;;;;;;6.05;2.20;;;14.10;90.10;;;;;;9181971;19;20015;-64
2022/10/16 08:21:05;;;;;;;5.00;2.20;;;14.20;90.10;;;;;;9176859;19;20478;-64
2022/10/16 08:24:11;;;;;;;9.93;2.72;;;14.20;90.10;;;;;;9180728;19;20006;-65
2022/10/16 08:27:15;;;;;;;6.07;2.10;;;14.30;90.10;;;;;;9179394;19;20449;-64
2022/10/16 08:30:20;;;;;;;7.72;2.70;;;14.30;90.10;;;;;;9177815;19;20351;-63
2022/10/16 08:33:24;;;;;;;6.55;1.92;;;14.40;90.20;;;;;;9181381;19;20365;-61
2022/10/16 08:36:27;;;;;;;6.03;1.80;;;14.40;90.10;;;;;;9182496;19;20509;-63
2022/10/16 08:39:33;;;;;;;4.07;2.10;;;14.50;90.10;;;;;;9181984;19;20014;-64
2022/10/16 08:42:49;;;;;;;3.63;2.00;;;14.60;90.10;;;;;;9180968;19;20109;-64
2022/10/16 08:46:26;;;;;;;6.57;1.95;;;14.70;90.10;;;;;;9178595;19;20027;-64
2022/10/16 08:49:31;;;;;;;6.35;1.73;;;14.70;90.10;;;;;;9180151;19;20090;-65
2022/10/16 08:52:40;;;;;;;4.32;2.00;;;14.80;90.00;;;;;;9180787;19;20015;-61
2022/10/16 08:55:50;;;;;;;7.93;2.22;;;14.90;90.00;;;;;;9180553;19;20022;-63
2022/10/16 08:58:55;;;;;;;7.68;1.90;;;14.90;90.00;;;;;;9179367;19;20018;-63
2022/10/16 09:02:27;;;;;;;5.60;2.22;;;15.00;90.00;;;;;;9179011;19;20029;-63
2022/10/16 09:05:49;;;;;;;4.40;1.88;;;15.00;89.90;;;;;;9178344;19;20018;-63
2022/10/16 09:09:10;;;;;;;4.85;1.70;;;15.10;89.90;;;;;;9180506;19;20102;-63
2022/10/16 09:12:21;;;;;;;7.65;2.03;;;15.20;89.90;;;;;;9178706;19;20421;-64
2022/10/16 09:15:34;;;;;;;3.70;2.08;;;15.20;89.80;;;;;;9180119;19;20078;-65
2022/10/16 09:18:45;;;;;;;3.78;1.92;;;15.30;89.80;;;;;;9178222;19;20095;-61
2022/10/16 09:21:49;;;;;;;5.25;1.88;;;15.40;89.80;;;;;;9170818;19;20515;-65
2022/10/16 09:24:53;;;;;;;5.95;2.03;;;15.50;89.70;;;;;;9172189;19;20095;-64
2022/10/16 09:27:59;;;;;;;5.95;1.75;;;15.60;89.70;;;;;;9169447;19;20025;-62
2022/10/16 09:31:02;;;;;;;3.80;1.85;;;15.70;89.60;;;;;;9173923;19;20021;-63
2022/10/16 09:34:08;;;;;;;3.10;1.92;;;15.80;89.60;;;;;;9172321;19;20424;-64
2022/10/16 09:37:15;;;;;;;2.97;1.75;;;15.90;89.60;;;;;;9172670;19;20387;-64
2022/10/16 09:40:27;;;;;;;4.72;1.80;;;16.00;89.50;;;;;;9174073;19;20057;-62
2022/10/16 09:43:41;;;;;;;7.60;1.95;;;16.20;89.30;;;;;;9171475;19;20054;-64
2022/10/16 09:46:44;;;;;;;7.28;1.77;;;16.30;89.20;;;;;;9169025;19;20057;-67
2022/10/16 09:49:56;;;;;;;6.25;2.45;;;16.50;89.10;;;;;;9177438;19;20085;-63
2022/10/16 09:53:07;;;;;;;6.60;1.73;;;16.60;89.00;;;;;;9178294;19;20514;-65
2022/10/16 09:56:13;;;;;;;9.20;2.00;;;16.80;88.90;;;;;;9178453;19;20464;-65
2022/10/16 09:59:20;;;;;;;9.63;2.22;;;17.00;88.90;;;;;;9179134;19;20022;-63
2022/10/16 10:02:30;;;;;;;9.15;1.90;;;17.20;88.80;;;;;;9175203;19;20011;-63
2022/10/16 10:05:34;;;;;;;7.03;1.90;;;17.40;88.40;;;;;;9174065;19;20090;-65
2022/10/16 10:08:37;;;;;;;4.93;1.73;;;17.50;88.20;;;;;;9178419;19;20011;-64
2022/10/16 10:11:50;;;;;;;6.82;1.95;;;17.60;87.90;;;;;;9178065;19;20014;-63
2022/10/16 10:14:59;;;;;;;13.50;2.03;;;17.80;87.60;;;;;;9178662;19;20025;-63
2022/10/16 10:18:03;;;;;;;6.03;2.15;;;17.90;87.40;;;;;;9177865;19;20501;-63
2022/10/16 10:21:07;;;;;;;16.00;2.80;;;18.00;87.30;;;;;;9172311;19;20022;-64
2022/10/16 10:24:13;;;;;;;9.30;2.05;;;18.20;87.10;;;;;;9177698;19;20461;-63
2022/10/16 10:27:20;;;;;;;8.15;2.22;;;18.30;86.80;;;;;;9176754;19;20021;-65
2022/10/16 10:30:31;;;;;;;6.80;1.58;;;18.40;86.60;;;;;;9177706;19;20018;-63
2022/10/16 10:33:44;;;;;;;5.45;1.48;;;18.60;86.50;;;;;;9177704;19;20567;-64
2022/10/16 10:36:52;;;;;;;14.80;2.58;;;18.70;86.30;;;;;;9177637;19;20452;-64
2022/10/16 10:40:05;;;;;;;9.65;1.95;;;18.90;86.00;;;;;;9175191;19;20015;-61
2022/10/16 10:43:23;;;;;;;12.77;2.35;;;19.00;86.20;;;;;;9176155;19;20021;-63
2022/10/16 10:46:37;;;;;;;8.02;2.03;;;19.10;85.30;;;;;;9176222;19;20039;-65
2022/10/16 10:49:58;;;;;;;6.30;2.00;;;19.20;85.20;;;;;;9176798;19;20019;-62
2022/10/16 10:53:11;;;;;;;7.47;1.63;;;19.30;84.90;;;;;;9176659;19;20014;-63
2022/10/16 10:56:36;;;;;;;9.18;2.05;;;19.40;84.60;;;;;;9175065;19;20090;-64
2022/10/16 11:00:09;;;;;;;7.97;2.15;;;19.50;84.10;;;;;;9177127;19;20018;-63
2022/10/16 11:03:29;;;;;;;8.35;1.98;;;19.60;84.00;;;;;;9176511;19;20070;-64
2022/10/16 11:06:38;;;;;;;4.00;1.77;;;19.60;83.70;;;;;;9171831;19;20023;-64
2022/10/16 11:09:46;;;;;;;7.90;1.52;;;19.70;83.70;;;;;;9176411;19;20010;-64
2022/10/16 11:12:54;;;;;;;11.50;2.30;;;19.70;83.30;;;;;;9175315;19;20025;-65
2022/10/16 11:16:02;;;;;;;6.00;1.63;;;19.70;83.00;;;;;;9175357;19;20101;-62
2022/10/16 11:19:16;;;;;;;11.52;1.90;;;19.80;82.80;;;;;;9172934;19;20505;-64
2022/10/16 11:22:26;;;;;;;7.45;1.58;;;19.80;82.30;;;;;;9170960;19;20018;-63
2022/10/16 11:25:32;;;;;;;7.78;1.67;;;19.90;82.30;;;;;;9173950;19;20667;-62
2022/10/16 11:28:41;;;;;;;10.82;1.67;;;19.90;82.10;;;;;;9171971;19;20095;-63
2022/10/16 11:31:49;;;;;;;5.60;1.85;;;19.90;81.70;;;;;;9175500;19;20082;-64
2022/10/16 11:35:01;;;;;;;12.55;1.83;;;19.90;81.60;;;;;;9175728;19;20086;-65
2022/10/16 11:38:11;;;;;;;8.75;1.85;;;19.90;81.30;;;;;;9175935;19;20017;-64
2022/10/16 11:41:24;;;;;;;7.75;1.52;;;19.90;81.30;;;;;;9174884;19;20028;-63
2022/10/16 11:44:48;;;;;;;8.18;1.48;;;19.90;81.00;;;;;;9174943;19;20010;-62
2022/10/16 11:48:00;;;;;;;13.48;1.88;;;19.90;81.50;;;;;;9173077;19;20329;-64
2022/10/16 11:51:13;;;;;;;10.52;2.22;;;19.90;81.00;;;;;;9180351;19;20007;-64
2022/10/16 11:54:23;;;;;;;6.97;1.60;;;20.00;80.90;;;;;;9183004;19;20082;-61
2022/10/16 11:57:31;;;;;;;9.48;2.22;;;20.10;80.80;;;;;;9181868;19;20022;-64
2022/10/16 12:00:43;;;;;;;9.90;1.90;;;20.10;80.60;;;;;;9182572;19;20073;-62
2022/10/16 12:03:51;;;;;;;5.07;1.88;;;20.20;80.30;;;;;;9182407;19;20088;-62
2022/10/16 12:07:02;;;;;;;9.63;1.77;;;20.20;80.10;;;;;;9180434;19;20468;-63
2022/10/16 12:10:12;;;;;;;10.43;1.70;;;20.30;79.80;;;;;;9183383;19;20585;-61
2022/10/16 12:13:33;;;;;;;12.70;1.83;;;20.30;79.40;;;;;;9182073;19;20022;-62
2022/10/16 12:16:39;;;;;;;5.80;1.30;;;20.40;79.10;;;;;;9180892;19;20019;-63
2022/10/16 12:19:43;;;;;;;10.48;2.30;;;20.40;79.30;;;;;;9182300;19;20044;-64
2022/10/16 12:22:55;;;;;;;10.23;1.60;;;20.40;79.60;;;;;;9177599;19;20017;-64
2022/10/16 12:26:02;;;;;;;8.50;1.60;;;20.50;78.60;;;;;;9182162;19;20036;-62
2022/10/16 12:29:17;;;;;;;12.88;2.15;;;20.50;78.60;;;;;;9181460;19;20042;-62
2022/10/16 12:32:29;;;;;;;8.90;1.50;;;20.50;78.10;;;;;;9181079;19;20013;-63
2022/10/16 12:35:50;;;;;;;8.35;1.67;;;20.50;78.10;;;;;;9181246;19;20022;-62
2022/10/16 12:38:56;;;;;;;9.90;1.75;;;20.50;78.10;;;;;;9181699;19;20086;-62
2022/10/16 12:42:04;;;;;;;5.80;1.40;;;20.40;77.70;;;;;;9181159;19;20090;-62
2022/10/16 12:45:26;;;;;;;11.13;1.60;;;20.40;77.50;;;;;;9181488;19;20114;-62
2022/10/16 12:48:30;;;;;;;7.75;1.42;;;20.30;76.90;;;;;;9178188;19;20015;-62
2022/10/16 12:51:52;;;;;;;13.20;1.95;;;20.20;77.40;;;;;;9181055;19;20031;-64
2022/10/16 12:55:01;;;;;;;18.08;2.53;;;20.10;77.30;;;;;;9180753;19;20063;-63
2022/10/16 12:58:25;;;;;;;6.97;1.15;;;20.10;77.20;;;;;;9181151;19;20046;-62
2022/10/16 13:01:43;;;;;;;9.75;1.60;;;20.00;76.90;;;;;;9178888;19;20018;-64
2022/10/16 13:05:04;;;;;;;13.60;2.13;;;19.90;76.90;;;;;;9179895;19;20381;-64
2022/10/16 13:08:26;;;;;;;8.70;1.83;;;19.90;77.00;;;;;;9178481;19;20414;-64
2022/10/16 13:11:40;;;;;;;9.15;1.48;;;19.80;76.90;;;;;;9177480;19;20029;-63
2022/10/16 13:15:08;;;;;;;11.27;1.63;;;19.70;77.00;;;;;;9180728;19;20019;-65
2022/10/16 13:18:17;;;;;;;10.35;2.42;;;19.60;76.80;;;;;;9180601;19;20017;-64
2022/10/16 13:21:36;;;;;;;6.15;1.20;;;19.60;77.10;;;;;;9175639;19;20018;-63
2022/10/16 13:24:57;;;;;;;8.05;1.70;;;19.50;76.70;;;;;;9176645;19;20429;-65
2022/10/16 13:28:04;;;;;;;8.93;1.58;;;19.50;76.50;;;;;;9177684;19;20028;-63
2022/10/16 13:31:16;;;;;;;7.75;1.38;;;19.40;76.70;;;;;;9180539;19;20019;-67
2022/10/16 13:34:23;;;;;;;7.28;1.30;;;19.40;76.50;;;;;;9179313;19;20019;-62
2022/10/16 13:37:27;;;;;;;7.82;1.63;;;19.30;76.60;;;;;;9178822;19;20066;-61
2022/10/16 13:40:31;;;;;;;10.48;1.52;;;19.30;76.60;;;;;;9179515;19;20021;-62
2022/10/16 13:43:40;;;;;;;9.52;2.00;;;19.30;76.50;;;;;;9180009;19;20086;-63
2022/10/16 13:46:44;;;;;;;12.10;1.50;;;19.20;76.20;;;;;;9178413;19;20018;-62
2022/10/16 13:49:48;;;;;;;12.68;1.35;;;19.20;76.20;;;;;;9179223;19;20376;-62
2022/10/16 13:52:52;;;;;;;10.30;1.90;;;19.10;76.10;;;;;;9179851;19;20835;-63
2022/10/16 13:55:56;;;;;;;9.82;1.55;;;19.00;75.90;;;;;;9179871;19;20017;-62
2022/10/16 13:59:03;;;;;;;7.57;1.38;;;19.00;75.90;;;;;;9179471;19;20019;-63
2022/10/16 14:02:17;;;;;;;9.98;2.05;;;18.90;75.80;;;;;;9178891;19;20018;-65
2022/10/16 14:05:21;;;;;;;6.00;1.25;;;18.90;75.70;;;;;;9176749;19;20025;-65
2022/10/16 14:08:27;;;;;;;6.88;1.63;;;18.80;75.90;;;;;;9173384;19;20022;-65
2022/10/16 14:11:31;;;;;;;12.45;2.67;;;18.80;75.90;;;;;;9176795;19;20018;-63
2022/10/16 14:14:41;;;;;;;;;;;18.80;75.90;;;;;;9176074;19;20032;-64
2022/10/16 14:17:52;;;;;;;7.10;1.65;;;18.80;76.20;;;;;;9178608;19;19926;-61
2022/10/16 14:20:56;;;;;;;11.45;2.05;;;18.70;76.20;;;;;;9172446;19;20014;-63
2022/10/16 14:24:13;;;;;;;8.75;2.13;;;18.70;76.10;;;;;;9178399;19;20327;-63
2022/10/16 14:27:28;;;;;;;8.40;1.23;;;18.70;75.70;;;;;;9177208;19;20015;-65
2022/10/16 14:30:37;;;;;;;14.25;1.90;;;18.70;75.70;;;;;;9177901;19;20026;-63
2022/10/16 14:33:43;;;;;;;12.23;2.58;;;18.70;75.80;;;;;;9177630;19;20015;-64
2022/10/16 14:36:46;;;;;;;9.77;1.45;;;18.60;75.80;;;;;;9177720;19;20022;-62
2022/10/16 14:39:51;;;;;;;6.50;1.40;;;18.60;75.80;;;;;;9177930;19;20436;-62
2022/10/16 14:42:56;;;;;;;9.77;1.60;;;18.60;75.80;;;;;;9176875;19;20032;-62
2022/10/16 14:46:03;;;;;;;10.88;1.70;;;18.60;75.70;;;;;;9177225;19;20027;-63
2022/10/16 14:49:18;;;;;;;9.90;1.50;;;18.60;75.60;;;;;;9173780;19;20030;-62
2022/10/16 14:52:22;;;;;;;12.23;2.33;;;18.50;75.40;;;;;;9177147;19;20014;-62
2022/10/16 14:55:26;;;;;;;;;;;18.50;75.50;;;;;;9177489;19;20056;-62
2022/10/16 14:58:30;;;;;;;12.97;2.00;;;18.50;75.70;;;;;;9176777;19;20000;-65
2022/10/16 15:01:35;;;;;;;11.52;1.92;;;18.50;75.80;;;;;;9176539;19;20015;-62
2022/10/16 15:04:39;;;;;;;8.80;1.73;;;18.50;75.60;;;;;;9175548;19;20022;-64
2022/10/16 15:07:42;;;;;;;12.68;2.15;;;18.50;75.50;;;;;;9174394;19;20362;-63
2022/10/16 15:10:46;;;;;;;5.72;1.58;;;18.40;75.40;;;;;;9176401;19;20023;-63
2022/10/16 15:13:50;;;;;;;13.80;2.33;;;18.40;75.40;;;;;;9176025;19;20517;-65
2022/10/16 15:16:55;;;;;;;6.28;1.50;;;18.40;75.30;;;;;;9175624;19;20018;-63
2022/10/16 15:19:59;;;;;;;10.43;1.80;;;18.40;75.30;;;;;;9175663;19;20360;-63
2022/10/16 15:23:03;;;;;;;9.43;1.45;;;18.30;75.30;;;;;;9171233;19;20033;-64
2022/10/16 15:26:07;;;;;;;10.05;1.60;;;18.30;75.30;;;;;;9181971;19;20048;-62
2022/10/16 15:29:11;;;;;;;17.35;1.92;;;18.30;75.30;;;;;;9180775;19;20010;-62
2022/10/16 15:32:16;;;;;;;11.10;1.70;;;18.20;75.30;;;;;;9181615;19;20366;-63
2022/10/16 15:35:20;;;;;;;10.93;1.55;;;18.20;75.20;;;;;;9181011;19;20761;-64
2022/10/16 15:38:24;;;;;;;13.55;2.67;;;18.10;75.20;;;;;;9182403;19;20011;-61
2022/10/16 15:41:28;;;;;;;;;;;18.10;75.20;;;;;;9182701;19;20078;-62
2022/10/16 15:44:31;;;;;;;10.95;1.50;;;18.10;75.50;;;;;;9183280;19;20248;-62
2022/10/16 15:47:37;;;;;;;9.52;1.85;;;18.00;75.50;;;;;;9180613;19;20014;-62
2022/10/16 15:50:45;;;;;;;7.60;1.48;;;18.00;75.60;;;;;;9183684;19;20452;-61
2022/10/16 15:53:50;;;;;;;7.78;1.63;;;17.90;75.60;;;;;;9183735;19;20090;-63
2022/10/16 15:56:54;;;;;;;8.70;1.50;;;17.90;75.70;;;;;;9182427;19;20447;-64
2022/10/16 15:59:57;;;;;;;14.02;2.05;;;17.80;75.60;;;;;;9180503;19;20025;-63
2022/10/16 16:03:03;;;;;;;13.93;2.03;;;17.80;75.70;;;;;;9181120;19;20642;-63
2022/10/16 16:06:08;;;;;;;6.97;1.80;;;17.80;75.80;;;;;;9173258;19;20017;-64
2022/10/16 16:09:13;;;;;;;9.40;2.03;;;17.70;75.80;;;;;;9173296;19;20018;-63
2022/10/16 16:12:16;;;;;;;8.10;1.52;;;17.70;75.90;;;;;;9176185;19;20006;-62
2022/10/16 16:15:21;;;;;;;9.07;1.67;;;17.60;75.90;;;;;;9173973;19;20019;-62
2022/10/16 16:18:28;;;;;;;15.13;1.75;;;17.50;75.90;;;;;;9174028;19;20110;-64